Time;durP1;ratioP1;P1;durP2;ratioP2;P2;SDS_P1;SDS_P2;PMS_P1;PMS_P2;Temp;Humidity;BMP_temperature;BMP_pressure;BME280_temperature;BME280_humidity;BME280_pressure;Samples;Min_cycle;Max_cycle;Signal;HPM_P1;HPM_P2
2021/10/18 00:02:21;;;;;;;19.03;10.63;;;8.30;99.90;;;;;;5131913;27;20879;-67
2021/10/18 00:04:48;;;;;;;22.67;10.77;;;8.20;99.90;;;;;;5132305;27;20534;-67
2021/10/18 00:07:15;;;;;;;23.50;12.43;;;8.20;99.90;;;;;;5131766;27;20515;-67
2021/10/18 00:09:42;;;;;;;19.03;10.97;;;8.20;99.90;;;;;;5131687;27;20782;-67
2021/10/18 00:12:09;;;;;;;21.27;12.10;;;8.30;99.90;;;;;;5131748;27;20481;-67
2021/10/18 00:14:36;;;;;;;23.40;11.63;;;8.30;99.90;;;;;;5132405;27;20533;-67
2021/10/18 00:17:04;;;;;;;20.43;11.37;;;8.10;99.90;;;;;;5132365;28;20439;-67
2021/10/18 00:19:31;;;;;;;20.47;12.03;;;8.20;99.90;;;;;;5131553;28;20449;-66
2021/10/18 00:21:58;;;;;;;21.27;10.80;;;8.30;99.90;;;;;;5132295;28;20852;-67
2021/10/18 00:24:25;;;;;;;23.83;12.53;;;8.10;99.90;;;;;;5131642;28;20762;-67
2021/10/18 00:26:52;;;;;;;17.20;10.57;;;8.20;99.90;;;;;;5131998;28;20534;-67
2021/10/18 00:29:19;;;;;;;19.40;9.77;;;8.30;99.90;;;;;;5130870;28;20449;-67
2021/10/18 00:31:45;;;;;;;18.53;10.80;;;8.40;99.90;;;;;;5131825;28;20470;-67
2021/10/18 00:34:14;;;;;;;19.20;10.80;;;8.50;99.90;;;;;;5131069;28;20445;-67
2021/10/18 00:36:40;;;;;;;21.07;11.30;;;8.60;99.90;;;;;;5131841;28;20439;-67
2021/10/18 00:39:07;;;;;;;16.90;11.20;;;8.60;99.90;;;;;;5130793;28;20441;-67
2021/10/18 00:41:35;;;;;;;15.37;9.40;;;8.40;99.90;;;;;;5131902;28;20439;-67
2021/10/18 00:44:01;;;;;;;19.07;10.37;;;8.30;99.90;;;;;;5132570;27;20777;-67
2021/10/18 00:46:29;;;;;;;20.30;10.97;;;8.10;99.90;;;;;;5135468;27;20869;-66
2021/10/18 00:48:56;;;;;;;18.10;10.93;;;8.10;99.90;;;;;;5131557;27;20455;-67
2021/10/18 00:51:26;;;;;;;17.60;10.50;;;8.20;99.90;;;;;;5126018;27;20470;-68
2021/10/18 00:53:55;;;;;;;13.97;9.23;;;8.20;99.90;;;;;;5136113;27;20769;-67
2021/10/18 00:56:22;;;;;;;21.50;9.93;;;8.30;99.90;;;;;;5135372;27;20861;-67
2021/10/18 00:58:50;;;;;;;17.40;11.07;;;8.20;99.90;;;;;;5135854;27;20439;-67
2021/10/18 01:01:17;;;;;;;19.37;11.90;;;8.40;99.90;;;;;;5134767;27;20442;-67
2021/10/18 01:03:44;;;;;;;24.77;11.47;;;8.40;99.90;;;;;;5135886;27;20446;-67
2021/10/18 01:06:11;;;;;;;18.97;10.90;;;8.40;99.90;;;;;;5134911;27;20462;-67
2021/10/18 01:08:40;;;;;;;19.50;10.97;;;8.50;99.90;;;;;;5135674;27;20521;-68
2021/10/18 01:11:07;;;;;;;17.70;9.90;;;8.70;99.90;;;;;;5134800;27;20827;-67
2021/10/18 01:13:34;;;;;;;19.50;12.20;;;8.70;99.90;;;;;;5135846;27;20439;-67
2021/10/18 01:16:01;;;;;;;21.10;10.57;;;8.50;99.90;;;;;;5135493;27;20438;-67
2021/10/18 01:18:28;;;;;;;19.97;9.83;;;8.40;99.90;;;;;;5135009;27;20449;-67
2021/10/18 01:20:57;;;;;;;20.00;11.77;;;8.50;99.90;;;;;;5135014;27;20445;-67
2021/10/18 01:23:24;;;;;;;19.83;12.70;;;8.80;99.90;;;;;;5134622;27;20438;-67
2021/10/18 01:25:51;;;;;;;20.70;12.20;;;8.80;99.90;;;;;;5135353;27;20438;-67
2021/10/18 01:28:17;;;;;;;19.90;11.87;;;8.80;99.90;;;;;;5135040;27;20439;-67
2021/10/18 01:30:44;;;;;;;19.03;11.50;;;8.80;99.90;;;;;;5134464;27;20526;-67
2021/10/18 01:33:11;;;;;;;19.50;12.03;;;9.00;99.90;;;;;;5134608;27;20522;-67
2021/10/18 01:35:39;;;;;;;22.30;14.27;;;9.00;99.90;;;;;;5134913;27;20449;-67
2021/10/18 01:38:08;;;;;;;22.67;11.80;;;8.90;99.90;;;;;;5134918;27;20936;-67
2021/10/18 01:40:35;;;;;;;19.80;11.67;;;8.80;99.90;;;;;;5134800;27;20444;-67
2021/10/18 01:43:02;;;;;;;19.77;11.63;;;8.90;99.90;;;;;;5135314;27;20439;-67
2021/10/18 01:45:29;;;;;;;24.60;13.70;;;8.70;99.90;;;;;;5134461;27;20439;-67
2021/10/18 01:47:56;;;;;;;22.13;12.43;;;8.80;99.90;;;;;;5135129;27;20545;-67
2021/10/18 01:50:24;;;;;;;26.40;11.80;;;8.40;99.90;;;;;;5119952;27;20557;-67
2021/10/18 01:52:54;;;;;;;18.00;11.10;;;8.40;99.90;;;;;;5134861;27;20478;-67
2021/10/18 01:55:23;;;;;;;21.47;11.60;;;8.50;99.90;;;;;;5133578;27;20930;-67
2021/10/18 01:57:51;;;;;;;21.60;12.00;;;8.50;99.90;;;;;;5134262;27;20444;-67
2021/10/18 02:00:19;;;;;;;25.77;13.57;;;8.40;99.90;;;;;;5133710;27;20442;-68
2021/10/18 02:02:46;;;;;;;24.57;12.33;;;8.50;99.90;;;;;;5134542;27;20443;-67
2021/10/18 02:05:13;;;;;;;26.10;13.03;;;8.60;99.90;;;;;;5133905;27;20430;-67
2021/10/18 02:07:42;;;;;;;21.37;11.47;;;8.50;99.90;;;;;;5134384;27;20518;-67
2021/10/18 02:10:09;;;;;;;24.93;11.60;;;8.70;99.90;;;;;;5133552;27;20439;-66
2021/10/18 02:12:38;;;;;;;23.97;11.40;;;8.80;99.90;;;;;;5134695;27;20474;-67
2021/10/18 02:15:06;;;;;;;25.53;12.97;;;8.60;99.90;;;;;;5134634;27;20434;-67
2021/10/18 02:17:33;;;;;;;23.90;11.97;;;8.50;99.90;;;;;;5134554;27;20856;-67
2021/10/18 02:20:00;;;;;;;26.37;13.00;;;8.50;99.90;;;;;;5133840;27;20441;-67
2021/10/18 02:22:27;;;;;;;22.40;12.43;;;8.70;99.90;;;;;;5133736;27;20530;-67
2021/10/18 02:24:54;;;;;;;22.93;13.13;;;8.80;99.90;;;;;;5134254;27;20439;-67
2021/10/18 02:27:21;;;;;;;22.07;12.80;;;8.80;99.90;;;;;;5133888;27;20868;-67
2021/10/18 02:29:49;;;;;;;21.60;12.37;;;8.90;99.90;;;;;;5133889;27;20526;-67
2021/10/18 02:32:17;;;;;;;24.37;14.20;;;9.00;99.90;;;;;;5133467;27;20561;-67
2021/10/18 02:34:44;;;;;;;23.80;12.37;;;8.90;99.90;;;;;;5134206;27;20435;-67
2021/10/18 02:37:11;;;;;;;27.87;13.50;;;8.80;99.90;;;;;;5133432;27;20443;-67
2021/10/18 02:39:38;;;;;;;25.30;12.70;;;8.70;99.90;;;;;;5133641;27;20438;-67
2021/10/18 02:42:05;;;;;;;27.77;13.70;;;8.60;99.90;;;;;;5133996;27;20526;-67
2021/10/18 02:44:32;;;;;;;23.10;12.77;;;8.50;99.90;;;;;;5133702;27;20439;-67
2021/10/18 02:47:00;;;;;;;25.90;12.20;;;8.50;99.90;;;;;;5133673;27;20466;-67
2021/10/18 02:49:27;;;;;;;22.47;13.60;;;8.60;99.90;;;;;;5132265;27;20435;-67
2021/10/18 02:51:54;;;;;;;27.03;14.13;;;8.50;99.90;;;;;;5133346;27;20502;-67
2021/10/18 02:54:21;;;;;;;23.80;13.03;;;8.60;99.90;;;;;;5133163;27;20447;-67
2021/10/18 02:56:47;;;;;;;26.40;14.40;;;8.80;99.90;;;;;;5133389;27;20533;-67
2021/10/18 02:59:14;;;;;;;23.33;12.70;;;8.50;99.90;;;;;;5132353;27;20435;-67
2021/10/18 03:01:41;;;;;;;29.03;13.77;;;8.60;99.90;;;;;;5133451;27;20481;-67
2021/10/18 03:04:09;;;;;;;28.80;14.70;;;8.60;99.90;;;;;;5132673;27;20500;-67
2021/10/18 03:06:36;;;;;;;25.17;13.50;;;8.60;99.90;;;;;;5133267;27;20919;-67
2021/10/18 03:09:04;;;;;;;29.80;14.67;;;8.50;99.90;;;;;;5132814;27;20553;-67
2021/10/18 03:11:31;;;;;;;28.77;15.17;;;8.60;99.90;;;;;;5132279;27;20597;-67
2021/10/18 03:13:58;;;;;;;25.37;14.50;;;8.60;99.90;;;;;;5132999;27;20438;-67
2021/10/18 03:16:24;;;;;;;30.50;14.00;;;8.60;99.90;;;;;;5132235;27;20439;-67
2021/10/18 03:18:51;;;;;;;30.27;14.77;;;8.80;99.90;;;;;;5132879;27;20435;-67
2021/10/18 03:21:20;;;;;;;30.27;13.10;;;8.80;99.90;;;;;;5132279;27;20530;-67
2021/10/18 03:23:47;;;;;;;29.73;17.17;;;8.80;99.90;;;;;;5132757;27;20521;-67
2021/10/18 03:26:15;;;;;;;30.93;14.83;;;8.80;99.90;;;;;;5132342;27;20430;-67
2021/10/18 03:28:42;;;;;;;26.43;13.70;;;8.80;99.90;;;;;;5132615;27;20462;-67
2021/10/18 03:31:09;;;;;;;27.57;13.20;;;9.00;99.90;;;;;;5132348;27;20457;-67
2021/10/18 03:33:36;;;;;;;30.40;13.83;;;8.90;99.90;;;;;;5133272;27;20470;-67
2021/10/18 03:36:03;;;;;;;26.63;14.03;;;9.00;99.90;;;;;;5132878;27;20441;-66
2021/10/18 03:38:32;;;;;;;20.20;12.60;;;9.00;99.90;;;;;;5131821;27;20439;-67
2021/10/18 03:40:59;;;;;;;27.13;14.87;;;8.90;99.90;;;;;;5131985;27;20527;-67
2021/10/18 03:43:27;;;;;;;26.20;13.97;;;8.90;99.90;;;;;;5132176;27;20691;-67
2021/10/18 03:45:54;;;;;;;22.07;11.80;;;8.70;99.90;;;;;;5132584;27;20439;-67
2021/10/18 03:48:22;;;;;;;21.20;12.03;;;8.60;99.90;;;;;;5132221;27;20423;-67
2021/10/18 03:50:49;;;;;;;27.90;14.47;;;8.70;99.90;;;;;;5117966;27;20435;-67
2021/10/18 03:53:16;;;;;;;22.83;11.30;;;8.70;99.90;;;;;;5131613;27;20478;-67
2021/10/18 03:55:44;;;;;;;24.77;13.20;;;8.60;99.90;;;;;;5132668;27;20438;-67
2021/10/18 03:58:11;;;;;;;27.10;13.60;;;8.80;99.90;;;;;;5132147;27;20511;-66
2021/10/18 04:00:38;;;;;;;25.40;13.33;;;8.80;99.90;;;;;;5132073;27;20449;-66
2021/10/18 04:03:05;;;;;;;22.97;12.57;;;8.80;99.90;;;;;;5132021;27;20474;-66
2021/10/18 04:05:32;;;;;;;28.47;13.53;;;8.80;99.90;;;;;;5132471;27;21023;-66
2021/10/18 04:07:59;;;;;;;26.63;13.80;;;8.80;99.90;;;;;;5132084;27;20433;-66
2021/10/18 04:10:26;;;;;;;25.57;14.00;;;8.90;99.90;;;;;;5131094;27;20435;-66
2021/10/18 04:12:54;;;;;;;26.97;13.27;;;8.90;99.90;;;;;;5131825;27;20557;-66
2021/10/18 04:15:21;;;;;;;28.07;13.17;;;8.90;99.90;;;;;;5131694;27;20517;-67
2021/10/18 04:17:48;;;;;;;31.00;15.90;;;8.90;99.90;;;;;;5131890;28;20945;-66
2021/10/18 04:20:15;;;;;;;24.63;12.60;;;9.00;99.90;;;;;;5130221;27;20445;-66
2021/10/18 04:22:46;;;;;;;27.57;14.30;;;8.90;99.90;;;;;;5132196;28;20832;-66
2021/10/18 04:25:13;;;;;;;30.30;15.43;;;9.00;99.90;;;;;;5131781;28;20782;-66
2021/10/18 04:27:40;;;;;;;24.27;14.50;;;9.00;99.90;;;;;;5132126;28;20900;-66
2021/10/18 04:30:09;;;;;;;27.87;12.20;;;9.00;99.90;;;;;;5131529;28;20517;-66
2021/10/18 04:32:36;;;;;;;27.83;13.80;;;9.00;99.90;;;;;;5132196;28;20565;-66
2021/10/18 04:35:04;;;;;;;26.10;12.40;;;9.00;99.90;;;;;;5132021;28;20435;-66
2021/10/18 04:37:30;;;;;;;26.53;16.03;;;9.10;99.90;;;;;;5131501;28;20443;-66
2021/10/18 04:39:57;;;;;;;25.60;13.27;;;9.10;99.90;;;;;;5131361;28;20447;-66
2021/10/18 04:42:24;;;;;;;26.17;13.57;;;9.00;99.90;;;;;;5130466;28;20990;-66
2021/10/18 04:44:51;;;;;;;26.20;12.73;;;9.10;99.90;;;;;;5131732;28;20451;-66
2021/10/18 04:47:19;;;;;;;27.17;15.07;;;9.10;99.90;;;;;;5131179;28;20997;-66
2021/10/18 04:49:46;;;;;;;31.07;14.03;;;9.00;99.90;;;;;;5120062;28;20858;-66
2021/10/18 04:52:13;;;;;;;29.57;13.63;;;9.10;99.90;;;;;;5128861;28;20561;-66
2021/10/18 04:54:40;;;;;;;20.97;12.40;;;9.20;99.90;;;;;;5132149;28;20529;-66
2021/10/18 04:57:07;;;;;;;26.27;14.97;;;9.30;99.90;;;;;;5131298;28;20482;-66
2021/10/18 04:59:34;;;;;;;23.40;12.50;;;9.10;99.90;;;;;;5131565;28;20443;-66
2021/10/18 05:02:00;;;;;;;30.93;12.63;;;9.10;99.90;;;;;;5131665;28;20609;-66
2021/10/18 05:04:29;;;;;;;30.03;15.80;;;9.10;99.90;;;;;;5131180;28;20446;-66
2021/10/18 05:06:56;;;;;;;26.73;14.23;;;9.10;99.90;;;;;;5131709;28;20445;-68
2021/10/18 05:09:22;;;;;;;26.67;13.93;;;9.30;99.90;;;;;;5130837;28;20523;-66
2021/10/18 05:11:49;;;;;;;25.93;14.97;;;9.30;99.90;;;;;;5131551;28;20447;-66
2021/10/18 05:14:16;;;;;;;24.10;13.50;;;9.30;99.90;;;;;;5131044;28;20452;-66
2021/10/18 05:16:43;;;;;;;29.83;13.33;;;9.30;99.90;;;;;;5131768;28;20537;-66
2021/10/18 05:19:10;;;;;;;24.20;12.77;;;9.20;99.90;;;;;;5130675;28;20446;-66
2021/10/18 05:21:38;;;;;;;25.37;14.20;;;9.30;99.90;;;;;;5125978;28;20946;-67
2021/10/18 05:24:06;;;;;;;21.83;11.10;;;9.30;99.90;;;;;;5111355;28;20527;-67
2021/10/18 05:26:33;;;;;;;22.83;13.43;;;9.20;99.90;;;;;;5110691;28;20505;-66
2021/10/18 05:29:00;;;;;;;27.57;14.40;;;9.40;99.90;;;;;;5110266;28;20531;-66
2021/10/18 05:31:27;;;;;;;25.83;14.33;;;9.40;99.90;;;;;;5112499;28;21003;-67
2021/10/18 05:33:54;;;;;;;22.83;13.30;;;9.40;99.90;;;;;;5114173;28;20479;-66
2021/10/18 05:36:21;;;;;;;21.17;12.20;;;9.50;99.90;;;;;;5113874;28;20455;-67
2021/10/18 05:38:49;;;;;;;30.53;15.90;;;9.40;99.90;;;;;;5114144;28;20624;-66
2021/10/18 05:41:16;;;;;;;22.23;12.97;;;9.40;99.90;;;;;;5120647;27;20482;-67
2021/10/18 05:43:43;;;;;;;22.83;12.70;;;9.50;99.90;;;;;;5134697;27;20446;-66
2021/10/18 05:46:10;;;;;;;27.57;13.80;;;9.50;99.90;;;;;;5134345;27;20557;-66
2021/10/18 05:48:37;;;;;;;32.60;14.97;;;9.50;99.90;;;;;;5132888;27;20443;-66
2021/10/18 05:51:04;;;;;;;24.37;13.13;;;9.70;99.90;;;;;;5123020;27;20522;-67
2021/10/18 05:53:32;;;;;;;30.23;14.20;;;9.70;99.90;;;;;;5134093;27;20589;-67
2021/10/18 05:56:00;;;;;;;29.07;15.07;;;9.60;99.90;;;;;;5134800;27;20530;-66
2021/10/18 05:58:27;;;;;;;21.20;13.20;;;9.60;99.90;;;;;;5133739;27;20453;-66
2021/10/18 06:00:54;;;;;;;26.73;13.00;;;9.50;99.90;;;;;;5134667;27;20534;-66
2021/10/18 06:03:20;;;;;;;27.00;15.30;;;9.50;99.90;;;;;;5134049;27;20442;-67
2021/10/18 06:05:47;;;;;;;24.07;12.43;;;9.50;99.90;;;;;;5134455;27;20537;-67
2021/10/18 06:08:16;;;;;;;22.80;13.00;;;9.60;99.90;;;;;;5133625;27;20508;-67
2021/10/18 06:10:43;;;;;;;26.23;13.97;;;9.50;99.90;;;;;;5133745;27;20529;-67
2021/10/18 06:13:13;;;;;;;29.17;16.03;;;9.50;99.90;;;;;;5133446;27;20582;-67
2021/10/18 06:15:40;;;;;;;29.40;16.10;;;9.60;99.90;;;;;;5134179;27;20530;-67
2021/10/18 06:18:08;;;;;;;25.63;15.20;;;9.70;99.90;;;;;;5133752;27;20438;-67
2021/10/18 06:20:35;;;;;;;26.43;13.90;;;9.70;99.90;;;;;;5134059;27;20530;-67
2021/10/18 06:23:02;;;;;;;27.37;14.93;;;9.70;99.90;;;;;;5134459;27;20926;-67
2021/10/18 06:25:29;;;;;;;28.40;15.87;;;9.70;99.90;;;;;;5122476;27;20527;-67
2021/10/18 06:27:57;;;;;;;28.07;13.77;;;9.80;99.90;;;;;;5113326;28;20849;-67
2021/10/18 06:30:26;;;;;;;25.60;14.73;;;9.90;99.90;;;;;;5112500;28;20519;-67
2021/10/18 06:32:53;;;;;;;24.30;14.70;;;9.90;99.90;;;;;;5113425;28;20490;-67
2021/10/18 06:35:20;;;;;;;22.20;13.23;;;9.90;99.90;;;;;;5112722;28;20443;-67
2021/10/18 06:37:47;;;;;;;23.40;12.70;;;9.90;99.90;;;;;;5113447;28;20447;-67
2021/10/18 06:40:14;;;;;;;22.10;13.37;;;9.80;99.90;;;;;;5112476;28;20522;-68
2021/10/18 06:42:41;;;;;;;33.57;15.87;;;9.80;99.90;;;;;;5112378;28;20454;-68
2021/10/18 06:45:09;;;;;;;27.23;14.67;;;9.70;99.90;;;;;;5112838;28;20440;-68
2021/10/18 06:47:37;;;;;;;25.83;13.33;;;9.90;99.90;;;;;;5112856;28;21034;-68
2021/10/18 06:50:05;;;;;;;27.67;15.13;;;9.90;99.90;;;;;;5129103;27;20543;-67
2021/10/18 06:52:34;;;;;;;28.07;15.83;;;10.00;99.90;;;;;;5112978;28;21259;-68
2021/10/18 06:55:04;;;;;;;23.93;14.80;;;10.10;99.90;;;;;;5112682;27;20451;-67
2021/10/18 06:57:32;;;;;;;27.30;14.30;;;10.10;99.90;;;;;;5113156;28;20939;-68
2021/10/18 07:00:00;;;;;;;22.80;14.07;;;10.10;99.90;;;;;;5112540;28;20445;-65
2021/10/18 07:02:27;;;;;;;25.33;14.07;;;10.20;99.90;;;;;;5112038;28;20680;-67
2021/10/18 07:04:55;;;;;;;28.40;13.43;;;10.20;99.90;;;;;;5112850;28;20440;-68
2021/10/18 07:07:26;;;;;;;29.70;15.57;;;10.30;99.90;;;;;;5112026;28;20447;-68
2021/10/18 07:09:59;;;;;;;23.03;14.13;;;10.20;99.90;;;;;;5112062;28;20448;-67
2021/10/18 07:12:26;;;;;;;24.13;13.70;;;10.20;99.90;;;;;;5112192;28;20451;-66
2021/10/18 07:14:54;;;;;;;20.27;13.07;;;10.20;99.90;;;;;;5112426;28;20453;-66
2021/10/18 07:17:22;;;;;;;20.20;11.73;;;10.20;99.90;;;;;;5111829;28;20527;-66
2021/10/18 07:19:49;;;;;;;24.50;14.97;;;10.20;99.90;;;;;;5112218;28;20896;-67
2021/10/18 07:22:18;;;;;;;25.27;13.20;;;10.20;99.90;;;;;;5111720;28;20447;-66
2021/10/18 07:24:45;;;;;;;21.73;11.83;;;10.20;37.60;;;;;;5112394;28;20527;-67
2021/10/18 07:27:12;;;;;;;19.53;12.03;;;10.40;3.40;;;;;;5111486;28;20458;-66
2021/10/18 07:29:39;;;;;;;16.97;11.03;;;10.30;1.00;;;;;;5111964;28;20479;-67
2021/10/18 07:32:07;;;;;;;23.47;12.47;;;10.00;11.20;;;;;;5112149;28;20876;-67
2021/10/18 07:34:34;;;;;;;22.20;12.07;;;9.90;6.40;;;;;;5112056;28;20511;-67
2021/10/18 07:37:01;;;;;;;18.23;12.33;;;9.90;99.90;;;;;;5112264;28;20538;-66
2021/10/18 07:39:30;;;;;;;20.20;11.50;;;10.10;99.90;;;;;;5111222;28;20448;-67
2021/10/18 07:41:58;;;;;;;16.47;11.97;;;10.10;95.60;;;;;;5112156;28;20845;-66
2021/10/18 07:44:26;;;;;;;20.37;12.33;;;10.30;71.50;;;;;;5111630;28;20855;-68
2021/10/18 07:46:55;;;;;;;14.83;9.40;;;;;;;;;;5112048;28;20479;-67
2021/10/18 07:49:23;;;;;;;19.00;9.83;;;;;;;;;;5121334;27;20492;-67
2021/10/18 07:51:50;;;;;;;17.50;11.10;;;;;;;;;;5117309;27;20873;-67
2021/10/18 07:54:18;;;;;;;18.60;12.20;;;;;;;;;;5110333;28;20566;-67
2021/10/18 07:56:46;;;;;;;15.33;9.63;;;;;;;;;;5111634;28;20467;-67
2021/10/18 07:59:13;;;;;;;21.43;12.20;;;;;;;;;;5110850;28;21019;-67
2021/10/18 08:01:40;;;;;;;20.10;13.97;;;;;;;;;;5111801;28;20452;-67
2021/10/18 08:04:08;;;;;;;16.33;9.87;;;;;;;;;;5111417;28;20462;-67
2021/10/18 08:06:35;;;;;;;21.50;12.57;;;;;;;;;;5111891;28;20451;-67
2021/10/18 08:09:02;;;;;;;22.43;10.80;;;;;;;;;;5111184;28;20440;-67
2021/10/18 08:11:30;;;;;;;18.63;11.97;;;;;;;;;;5111210;28;20457;-67
2021/10/18 08:13:59;;;;;;;18.37;11.83;;;;;;;;;;5111649;28;20483;-67
2021/10/18 08:16:26;;;;;;;16.23;10.93;;;;;;;;;;5110808;28;20447;-67
2021/10/18 08:18:53;;;;;;;19.60;12.30;;;;;;;;;;5111453;28;20458;-67
2021/10/18 08:21:22;;;;;;;17.83;11.53;;;;;;;;;;5110842;28;20452;-67
2021/10/18 08:23:49;;;;;;;18.63;12.50;;;;;;;;;;5111748;28;20475;-67
2021/10/18 08:26:16;;;;;;;20.00;12.63;;;;;;;;;;5110549;28;20447;-67
2021/10/18 08:28:43;;;;;;;20.90;11.40;;;;;;;;;;5110876;28;20455;-67
2021/10/18 08:31:12;;;;;;;20.03;12.40;;;;;;;;;;5111063;28;20451;-67
2021/10/18 08:33:39;;;;;;;19.70;12.80;;;;;;;;;;5111609;28;20486;-67
2021/10/18 08:36:06;;;;;;;26.07;12.47;;;10.10;80.70;;;;;;5111387;28;20939;-67
2021/10/18 08:41:25;;;;;;;25.70;14.60;;;10.40;1.00;;;;;;5114326;28;20506;-67
2021/10/18 08:46:38;;;;;;;18.23;11.30;;;11.50;99.90;;;;;;5131928;28;20550;-69
2021/10/18 08:49:05;;;;;;;23.43;13.87;;;11.20;99.90;;;;;;5131039;28;20482;-68
2021/10/18 08:51:32;;;;;;;15.33;11.80;;;10.70;99.90;;;;;;5131667;28;20519;-67
2021/10/18 08:53:59;;;;;;;24.37;13.60;;;10.80;99.90;;;;;;5131480;28;20569;-67
2021/10/18 08:56:26;;;;;;;15.70;10.37;;;10.40;1.00;;;;;;5131060;28;20505;-67
2021/10/18 08:58:52;;;;;;;20.07;12.53;;;10.90;99.90;;;;;;5131106;28;20529;-67
2021/10/18 09:01:19;;;;;;;19.30;11.50;;;11.60;1.00;;;;;;5131019;28;20950;-67
2021/10/18 09:03:48;;;;;;;23.93;13.53;;;11.70;1.00;;;;;;5131832;28;20533;-67
2021/10/18 09:06:17;;;;;;;19.70;11.80;;;10.80;99.90;;;;;;5133567;27;20529;-67
2021/10/18 09:08:47;;;;;;;16.83;11.53;;;11.80;1.00;;;;;;5135212;27;20545;-67
2021/10/18 09:11:16;;;;;;;19.20;12.17;;;12.10;1.00;;;;;;5135080;27;20820;-67
2021/10/18 09:13:58;;;;;;;21.13;13.40;;;12.40;1.00;;;;;;5135638;27;20482;-67
2021/10/18 09:16:27;;;;;;;19.47;11.17;;;12.50;99.90;;;;;;5134947;27;20438;-67
2021/10/18 09:19:05;;;;;;;18.93;12.57;;;12.50;1.00;;;;;;5135044;27;20446;-68
2021/10/18 09:21:34;;;;;;;18.57;12.03;;;12.30;1.00;;;;;;5135580;27;20438;-68
2021/10/18 09:24:02;;;;;;;19.10;12.60;;;12.60;1.00;;;;;;5135455;27;20455;-68
2021/10/18 09:26:31;;;;;;;21.27;13.30;;;12.70;1.00;;;;;;5134770;27;20788;-68
2021/10/18 09:29:04;;;;;;;17.10;12.63;;;12.80;1.00;;;;;;5135045;27;20482;-68
2021/10/18 09:31:31;;;;;;;16.10;11.90;;;12.80;1.00;;;;;;5135102;27;20445;-68
2021/10/18 09:34:07;;;;;;;17.67;11.90;;;12.80;1.00;;;;;;5135072;27;20485;-67
2021/10/18 09:36:35;;;;;;;17.10;11.03;;;12.80;1.00;;;;;;5135171;27;20446;-68
2021/10/18 09:39:25;;;;;;;15.87;11.87;;;12.80;1.00;;;;;;5135107;27;20443;-68
2021/10/18 09:41:58;;;;;;;18.10;12.63;;;12.90;99.90;;;;;;5134833;27;20435;-68
2021/10/18 09:44:36;;;;;;;15.47;11.20;;;12.80;99.90;;;;;;5134351;27;20534;-68
2021/10/18 09:47:31;;;;;;;16.73;11.70;;;12.80;99.90;;;;;;5134952;27;20482;-68
2021/10/18 10:52:58;;;;;;;19.23;13.10;;;12.20;1.00;;;;;;5133131;27;20467;-67
2021/10/18 10:55:29;;;;;;;20.20;13.80;;;12.20;1.00;;;;;;5132774;27;20475;-67
2021/10/18 10:57:58;;;;;;;19.43;13.63;;;12.20;1.00;;;;;;5132693;27;20981;-67
2021/10/18 11:00:35;;;;;;;20.47;14.57;;;12.40;1.00;;;;;;5132559;27;20530;-67
2021/10/18 11:03:38;;;;;;;17.77;12.97;;;12.60;1.00;;;;;;5133580;27;20458;-67
2021/10/18 11:06:08;;;;;;;19.67;13.47;;;12.80;1.00;;;;;;5133606;27;20888;-67
2021/10/18 11:08:37;;;;;;;19.10;12.30;;;12.60;1.00;;;;;;5133085;27;20442;-67
2021/10/18 11:11:14;;;;;;;19.20;14.07;;;12.60;99.90;;;;;;5133284;27;20465;-67
2021/10/18 11:13:51;;;;;;;28.00;13.27;;;12.50;99.90;;;;;;5133408;27;20892;-67
2021/10/18 11:16:20;;;;;;;14.97;11.80;;;12.70;99.90;;;;;;5132488;27;20966;-67
2021/10/18 11:18:52;;;;;;;21.07;14.33;;;12.90;1.00;;;;;;5132890;27;20453;-67
2021/10/18 11:21:21;;;;;;;17.77;11.57;;;13.10;1.00;;;;;;5132723;27;20499;-67
2021/10/18 11:24:01;;;;;;;15.50;11.17;;;13.10;99.90;;;;;;5133115;27;20451;-67
2021/10/18 11:26:31;;;;;;;17.47;13.10;;;13.00;99.90;;;;;;5132300;27;20940;-67
2021/10/18 11:28:59;;;;;;;22.13;12.80;;;12.90;99.90;;;;;;5132278;27;20443;-67
2021/10/18 11:31:31;;;;;;;19.90;12.43;;;12.90;1.00;;;;;;5132437;27;20807;-67
2021/10/18 11:34:08;;;;;;;18.30;13.53;;;13.10;99.90;;;;;;5132444;27;20479;-67
2021/10/18 11:36:37;;;;;;;14.80;11.13;;;13.20;99.90;;;;;;5132756;27;20445;-67
2021/10/18 11:39:13;;;;;;;15.20;10.80;;;13.40;1.00;;;;;;5132825;27;20583;-67
2021/10/18 11:42:11;;;;;;;17.97;12.00;;;13.40;50.90;;;;;;5132465;27;20529;-67
2021/10/18 11:44:42;;;;;;;20.40;12.23;;;13.60;1.00;;;;;;5132850;27;20446;-67
2021/10/18 11:47:22;;;;;;;17.20;11.80;;;13.60;1.00;;;;;;5131657;27;21081;-67
2021/10/18 11:50:11;;;;;;;19.60;11.90;;;13.60;1.00;;;;;;5131673;27;20529;-67
2021/10/18 11:52:43;;;;;;;14.40;10.87;;;13.80;99.90;;;;;;5132622;27;20526;-67
2021/10/18 11:55:11;;;;;;;17.70;12.33;;;13.70;99.90;;;;;;5131758;27;20835;-67
2021/10/18 11:57:43;;;;;;;16.60;11.90;;;13.70;1.00;;;;;;5132280;27;20450;-67
2021/10/18 12:00:12;;;;;;;16.27;12.50;;;13.90;99.90;;;;;;5131252;27;20991;-67
2021/10/18 12:02:45;;;;;;;19.00;12.47;;;13.90;99.90;;;;;;5132151;27;20442;-67
2021/10/18 12:05:13;;;;;;;20.30;12.57;;;13.90;99.90;;;;;;5132109;27;20465;-67
2021/10/18 12:07:45;;;;;;;17.10;11.53;;;13.90;99.90;;;;;;5132358;27;20798;-67
2021/10/18 12:10:18;;;;;;;14.70;11.43;;;14.00;82.40;;;;;;5131315;27;20521;-67
2021/10/18 12:13:22;;;;;;;16.17;12.03;;;13.80;99.90;;;;;;5132215;27;20794;-67
2021/10/18 12:16:12;;;;;;;16.40;11.70;;;13.90;99.90;;;;;;5131864;27;20965;-67
2021/10/18 12:18:45;;;;;;;18.03;11.87;;;14.20;48.10;;;;;;5131930;28;20438;-67
2021/10/18 12:21:13;;;;;;;15.47;12.23;;;;;;;;;;5131644;28;20443;-66
2021/10/18 12:23:48;;;;;;;19.53;12.10;;;;;;;;;;5132160;28;20435;-66
2021/10/18 12:26:17;;;;;;;15.47;11.57;;;;;;;;;;5131659;28;20494;-68
2021/10/18 12:28:46;;;;;;;14.83;10.97;;;;;;;;;;5131743;28;20531;-66
2021/10/18 12:31:28;;;;;;;14.10;10.80;;;;;;;;;;5131513;28;20517;-66
2021/10/18 12:34:06;;;;;;;18.17;12.43;;;;;;;;;;5131811;28;20501;-66
2021/10/18 12:36:34;;;;;;;14.17;11.87;;;;;;;;;;5131842;28;20531;-66
2021/10/18 12:39:01;;;;;;;18.93;11.70;;;;;;;;;;5131437;28;20443;-67
2021/10/18 12:41:28;;;;;;;14.10;10.30;;;;;;;;;;5134131;27;20525;-66
2021/10/18 12:43:57;;;;;;;15.27;11.17;;;;;;;;;;5136049;27;20529;-66
2021/10/18 12:46:26;;;;;;;17.10;13.77;;;;;;;;;;5135143;27;20523;-66
2021/10/18 12:48:57;;;;;;;18.83;12.47;;;;;;;;;;5131650;27;20470;-67
2021/10/18 12:51:41;;;;;;;15.87;12.73;;;;;;;;;;5126054;27;20451;-67
2021/10/18 12:54:21;;;;;;;15.73;11.60;;;;;;;;;;5133776;27;20577;-67
2021/10/18 12:57:02;;;;;;;15.30;11.70;;;;;;;;;;5135678;27;20533;-67
2021/10/18 12:59:32;;;;;;;16.97;11.60;;;;;;;;;;5135053;27;20446;-67
2021/10/18 13:02:22;;;;;;;19.20;11.30;;;;;;;;;;5135817;27;20435;-66
2021/10/18 13:05:09;;;;;;;15.93;11.93;;;;;;;;;;5135481;27;20454;-66
2021/10/18 13:07:37;;;;;;;16.67;12.30;;;;;;;;;;5135870;27;20527;-67
2021/10/18 13:10:05;;;;;;;15.67;10.43;;;;;;;;;;5135063;27;20525;-67
2021/10/18 13:12:32;;;;;;;18.73;12.37;;;;;;;;;;5135446;27;20453;-67
2021/10/18 13:15:01;;;;;;;14.10;11.17;;;;;;;;;;5135133;27;20485;-67
2021/10/18 13:17:28;;;;;;;15.53;10.63;;;;;;;;;;5134859;27;20539;-66
2021/10/18 13:19:56;;;;;;;17.43;10.93;;;;;;;;;;5134895;27;20443;-66
2021/10/18 13:22:23;;;;;;;14.13;11.10;;;;;;;;;;5135061;27;20449;-66
2021/10/18 13:24:50;;;;;;;16.30;11.53;;;;;;;;;;5134985;27;20457;-67
2021/10/18 13:27:18;;;;;;;17.53;11.67;;;;;;;;;;5134682;27;20461;-66
2021/10/18 13:29:45;;;;;;;11.23;9.10;;;;;;;;;;5134594;27;20937;-66
2021/10/18 13:32:14;;;;;;;15.17;11.23;;;;;;;;;;5134732;27;20446;-67
2021/10/18 13:34:42;;;;;;;19.33;11.50;;;;;;;;;;5135088;27;20478;-67
2021/10/18 13:37:09;;;;;;;15.00;11.50;;;;;;;;;;5134691;27;20884;-66
2021/10/18 13:39:36;;;;;;;14.13;10.80;;;;;;;;;;5134925;27;20443;-66
2021/10/18 13:42:04;;;;;;;14.57;10.63;;;;;;;;;;5135017;27;20953;-67
2021/10/18 13:44:31;;;;;;;13.37;9.43;;;;;;;;;;5134461;27;20462;-66
2021/10/18 13:46:59;;;;;;;17.10;11.83;;;;;;;;;;5134957;27;20557;-66
2021/10/18 13:49:27;;;;;;;14.97;10.47;;;;;;;;;;5125057;27;20954;-66
2021/10/18 13:51:54;;;;;;;14.93;10.77;;;;;;;;;;5129362;27;20969;-67
2021/10/18 13:54:21;;;;;;;15.30;10.50;;;;;;;;;;5134056;27;20447;-66
2021/10/18 13:56:49;;;;;;;16.50;11.20;;;;;;;;;;5134830;27;20808;-67
2021/10/18 13:59:18;;;;;;;13.70;10.80;;;;;;;;;;5133845;27;20820;-66
2021/10/18 14:01:45;;;;;;;13.97;10.70;;;;;;;;;;5134386;27;20451;-66
2021/10/18 14:04:13;;;;;;;13.00;10.70;;;;;;;;;;5134056;27;20447;-67
2021/10/18 14:06:41;;;;;;;17.03;10.53;;;14.20;99.90;;;;;;5134534;27;20439;-66
2021/10/18 14:09:08;;;;;;;14.97;10.13;;;;;;;;;;5133697;27;20522;-67
2021/10/18 14:11:36;;;;;;;13.13;10.53;;;;;;;;;;5134904;27;20447;-66
2021/10/18 14:14:03;;;;;;;18.87;10.33;;;;;;;;;;5134280;27;20949;-66